Time;durP1;ratioP1;P1;durP2;ratioP2;P2;SDS_P1;SDS_P2;PMS_P1;PMS_P2;Temp;Humidity;BMP_temperature;BMP_pressure;BME280_temperature;BME280_humidity;BME280_pressure;Samples;Min_cycle;Max_cycle;Signal;HPM_P1;HPM_P2
2022/04/14 00:02:36;;;;;;;17.27;13.98;;;15.00;80.50;;;;;;5096763;28;20522;-58
2022/04/14 00:05:20;;;;;;;17.98;14.30;;;15.10;81.00;;;;;;5109234;28;20034;-58
2022/04/14 00:08:05;;;;;;;15.50;13.90;;;15.00;80.50;;;;;;5118337;28;20448;-57
2022/04/14 00:10:48;;;;;;;14.80;12.93;;;14.90;80.30;;;;;;5101848;28;20031;-55
2022/04/14 00:13:33;;;;;;;16.53;13.30;;;14.90;80.30;;;;;;5096267;28;20047;-56
2022/04/14 00:16:17;;;;;;;16.85;13.57;;;14.90;80.00;;;;;;5115826;28;20353;-60
2022/04/14 00:19:01;;;;;;;20.02;14.65;;;15.00;79.60;;;;;;5117271;28;20506;-58
2022/04/14 00:21:46;;;;;;;22.35;15.68;;;15.00;79.70;;;;;;5097083;28;20395;-59
2022/04/14 00:24:30;;;;;;;24.23;15.63;;;14.80;79.70;;;;;;5099062;28;20039;-59
2022/04/14 00:27:20;;;;;;;17.80;14.05;;;14.70;80.10;;;;;;5102127;28;20062;-59
2022/04/14 00:30:05;;;;;;;21.92;15.65;;;14.60;80.40;;;;;;5096185;28;20058;-58
2022/04/14 00:32:49;;;;;;;;;;;14.50;80.50;;;;;;5082387;28;20125;-61
2022/04/14 00:35:33;;;;;;;16.75;14.82;;;14.50;81.00;;;;;;5107681;27;20231;-58
2022/04/14 00:38:18;;;;;;;21.50;15.38;;;14.40;81.40;;;;;;5115685;28;20560;-58
2022/04/14 00:41:02;;;;;;;22.55;15.93;;;14.40;81.60;;;;;;5113678;28;20047;-58
2022/04/14 00:43:52;;;;;;;20.33;15.27;;;14.30;81.70;;;;;;5096893;28;20030;-61
2022/04/14 00:46:36;;;;;;;19.75;15.35;;;14.20;82.20;;;;;;5114962;28;20035;-59
2022/04/14 00:49:20;;;;;;;23.17;17.40;;;14.20;82.60;;;;;;5098846;28;20058;-57
2022/04/14 00:52:05;;;;;;;19.33;15.75;;;14.20;82.30;;;;;;5103841;28;20046;-58
2022/04/14 00:54:50;;;;;;;17.63;15.32;;;14.10;82.50;;;;;;5117266;28;20042;-58
2022/04/14 00:57:34;;;;;;;19.65;14.80;;;14.10;82.70;;;;;;5092057;28;20046;-58
2022/04/14 01:00:18;;;;;;;16.90;14.52;;;14.10;83.80;;;;;;5095764;28;20038;-60
2022/04/14 01:03:03;;;;;;;21.03;16.00;;;14.10;83.30;;;;;;5096224;28;20104;-58
2022/04/14 01:05:47;;;;;;;21.25;16.90;;;14.10;83.20;;;;;;5096232;28;20108;-60
2022/04/14 01:08:32;;;;;;;20.73;16.05;;;14.10;83.20;;;;;;5114013;28;20039;-59
2022/04/14 01:11:17;;;;;;;18.65;16.30;;;14.10;83.30;;;;;;5116957;28;20114;-57
2022/04/14 01:14:01;;;;;;;18.05;16.13;;;14.10;83.10;;;;;;5066201;28;20034;-59
2022/04/14 01:16:46;;;;;;;21.30;17.38;;;14.10;83.30;;;;;;5098495;28;20074;-58
2022/04/14 01:19:31;;;;;;;21.85;16.58;;;14.00;83.40;;;;;;5115593;28;20034;-59
2022/04/14 01:22:38;;;;;;;22.87;17.47;;;14.10;83.40;;;;;;5109478;28;20055;-58
2022/04/14 01:25:24;;;;;;;23.98;18.23;;;14.20;82.60;;;;;;5088742;28;20319;-58
2022/04/14 01:28:08;;;;;;;25.05;17.65;;;14.20;82.40;;;;;;5115835;28;20031;-57
2022/04/14 01:30:52;;;;;;;22.03;17.40;;;14.30;83.60;;;;;;5114791;28;20078;-59
2022/04/14 01:33:36;;;;;;;25.83;18.30;;;14.20;83.40;;;;;;5114704;28;20089;-59
2022/04/14 01:36:20;;;;;;;24.98;17.98;;;14.20;85.10;;;;;;5115998;28;20319;-59
2022/04/14 01:39:04;;;;;;;27.52;18.10;;;14.10;86.40;;;;;;5113649;28;20046;-59
2022/04/14 01:41:48;;;;;;;28.10;18.43;;;14.00;87.50;;;;;;5116091;28;20411;-58
2022/04/14 01:44:33;;;;;;;22.30;18.07;;;14.00;87.60;;;;;;5080276;28;20038;-58
2022/04/14 01:47:17;;;;;;;23.90;18.25;;;14.00;88.00;;;;;;5080185;28;20050;-58
2022/04/14 01:50:03;;;;;;;22.83;18.40;;;14.00;88.70;;;;;;5095093;28;20177;-59
2022/04/14 01:52:47;;;;;;;26.42;20.17;;;14.00;90.00;;;;;;5096127;28;20039;-57
2022/04/14 01:55:31;;;;;;;24.98;18.50;;;13.90;91.10;;;;;;5109294;28;20043;-63
2022/04/14 01:58:15;;;;;;;24.47;19.57;;;13.80;92.10;;;;;;5105935;28;20683;-59
2022/04/14 02:00:59;;;;;;;27.50;20.58;;;13.90;92.90;;;;;;5112340;27;20141;-56
2022/04/14 02:03:43;;;;;;;25.80;20.40;;;13.80;94.20;;;;;;5110165;28;20039;-59
2022/04/14 02:06:31;;;;;;;31.37;22.80;;;13.70;95.50;;;;;;5115037;28;20477;-56
2022/04/14 02:09:15;;;;;;;31.95;21.40;;;13.70;96.70;;;;;;5114513;28;20356;-62
2022/04/14 02:11:59;;;;;;;29.20;21.30;;;13.60;98.20;;;;;;5115577;28;20034;-58
2022/04/14 02:14:43;;;;;;;30.50;21.42;;;13.70;99.10;;;;;;5102459;28;20039;-58
2022/04/14 02:17:27;;;;;;;28.10;21.75;;;13.80;99.70;;;;;;5079464;28;20526;-58
2022/04/14 02:20:12;;;;;;;28.00;21.83;;;13.80;99.90;;;;;;5111870;28;20038;-58
2022/04/14 02:22:55;;;;;;;26.57;21.10;;;13.80;99.90;;;;;;5117396;27;20080;-62
2022/04/14 02:25:40;;;;;;;30.13;21.97;;;13.80;99.90;;;;;;5128225;27;20030;-58
2022/04/14 02:28:23;;;;;;;25.25;20.75;;;13.80;99.90;;;;;;5083681;28;20043;-57
2022/04/14 02:31:08;;;;;;;28.50;21.52;;;13.70;99.90;;;;;;5098481;28;20055;-59
2022/04/14 02:33:51;;;;;;;28.03;21.60;;;13.60;99.90;;;;;;5119097;27;20046;-56
2022/04/14 02:36:36;;;;;;;26.03;20.57;;;13.60;99.90;;;;;;5114724;28;20269;-61
2022/04/14 02:39:20;;;;;;;29.08;20.75;;;13.50;99.90;;;;;;5111892;28;20423;-58
2022/04/14 02:42:04;;;;;;;26.15;20.90;;;13.50;99.90;;;;;;5114449;27;20414;-59
2022/04/14 02:44:48;;;;;;;26.63;20.63;;;13.40;99.90;;;;;;5123852;27;20050;-58
2022/04/14 02:47:35;;;;;;;30.05;20.98;;;13.40;99.90;;;;;;5113530;28;20074;-56
2022/04/14 02:50:20;;;;;;;30.30;20.33;;;13.40;99.90;;;;;;5114078;28;20038;-60
2022/04/14 02:53:04;;;;;;;26.17;21.20;;;13.40;99.90;;;;;;5096219;28;20082;-58
2022/04/14 02:55:48;;;;;;;32.25;21.75;;;13.30;99.90;;;;;;5093988;28;20035;-58
2022/04/14 02:58:33;;;;;;;26.70;21.40;;;13.20;99.90;;;;;;5093359;28;20050;-57
2022/04/14 03:01:17;;;;;;;27.58;21.33;;;13.30;99.90;;;;;;5095114;28;20123;-60
2022/04/14 03:04:01;;;;;;;25.83;21.60;;;13.30;99.90;;;;;;5101117;28;20046;-59
2022/04/14 03:06:45;;;;;;;27.17;21.10;;;13.30;99.90;;;;;;5098913;28;20035;-59
2022/04/14 03:09:29;;;;;;;26.13;21.27;;;13.30;99.90;;;;;;5102306;28;20331;-58
2022/04/14 03:12:13;;;;;;;26.38;21.85;;;13.30;99.90;;;;;;5093481;28;20039;-53
2022/04/14 03:14:57;;;;;;;28.73;21.95;;;13.20;99.90;;;;;;5107035;28;20037;-59
2022/04/14 03:17:42;;;;;;;29.02;20.77;;;13.20;99.90;;;;;;5112994;28;20034;-58
2022/04/14 03:20:26;;;;;;;30.95;22.20;;;13.20;99.90;;;;;;5094967;28;20043;-58
2022/04/14 03:23:11;;;;;;;29.33;20.42;;;13.20;99.90;;;;;;5093143;28;20040;-58
2022/04/14 03:25:56;;;;;;;24.25;20.73;;;13.10;99.90;;;;;;5113775;28;20042;-58
2022/04/14 03:28:40;;;;;;;27.08;20.23;;;13.20;99.90;;;;;;5097950;28;20434;-57
2022/04/14 03:31:24;;;;;;;25.97;19.17;;;13.10;99.90;;;;;;5114030;28;20049;-58
2022/04/14 03:34:08;;;;;;;26.45;20.20;;;13.10;99.90;;;;;;5101814;28;20133;-58
2022/04/14 03:36:52;;;;;;;26.23;18.35;;;13.10;99.90;;;;;;5093576;28;20047;-55
2022/04/14 03:39:36;;;;;;;24.83;18.73;;;13.10;99.90;;;;;;5108384;28;20062;-58
2022/04/14 03:42:20;;;;;;;20.33;17.73;;;13.10;99.90;;;;;;5112575;28;20062;-58
2022/04/14 03:45:06;;;;;;;24.23;18.40;;;13.10;99.90;;;;;;5111821;28;20550;-57
2022/04/14 03:47:51;;;;;;;23.95;18.20;;;13.10;99.90;;;;;;5113009;28;20597;-57
2022/04/14 03:50:35;;;;;;;23.23;17.00;;;13.10;99.90;;;;;;5092714;28;20086;-55
2022/04/14 03:53:19;;;;;;;19.95;16.63;;;13.10;99.90;;;;;;5094329;28;20050;-55
2022/04/14 03:56:04;;;;;;;20.00;15.95;;;13.10;99.90;;;;;;5092886;28;20043;-58
2022/04/14 03:58:48;;;;;;;19.20;15.45;;;13.10;99.90;;;;;;5083195;28;20066;-58
2022/04/14 04:01:32;;;;;;;21.60;15.93;;;13.10;99.90;;;;;;5113948;28;20070;-60
2022/04/14 04:04:16;;;;;;;17.03;14.97;;;13.10;99.90;;;;;;5104989;28;20510;-55
2022/04/14 04:07:00;;;;;;;20.63;15.05;;;13.10;99.90;;;;;;5093120;28;20035;-59
2022/04/14 04:09:44;;;;;;;16.90;15.10;;;13.00;99.90;;;;;;5105457;28;20097;-58
2022/04/14 04:12:29;;;;;;;18.77;14.93;;;13.10;99.90;;;;;;5112256;28;20038;-58
2022/04/14 04:15:13;;;;;;;18.43;13.80;;;13.10;99.90;;;;;;5121214;28;20042;-57
2022/04/14 04:17:57;;;;;;;22.30;16.27;;;13.20;99.90;;;;;;5131676;27;20039;-57
2022/04/14 04:20:41;;;;;;;20.13;15.07;;;13.10;99.90;;;;;;5092675;28;20462;-57
2022/04/14 04:23:25;;;;;;;19.83;14.37;;;13.20;99.90;;;;;;5108263;28;20089;-55
2022/04/14 04:26:09;;;;;;;21.80;14.05;;;13.20;99.90;;;;;;5113226;28;20042;-58
2022/04/14 04:28:53;;;;;;;15.95;12.55;;;13.20;99.90;;;;;;5092554;28;20051;-58
2022/04/14 04:31:37;;;;;;;15.40;12.40;;;13.20;99.90;;;;;;5111133;28;20081;-58
2022/04/14 04:34:21;;;;;;;18.83;12.57;;;13.10;99.90;;;;;;5112789;28;20078;-58
2022/04/14 04:37:05;;;;;;;16.45;12.85;;;13.10;99.90;;;;;;5094287;28;20264;-55
2022/04/14 04:39:49;;;;;;;15.88;11.88;;;13.10;99.90;;;;;;5111899;28;20049;-56
2022/04/14 04:42:33;;;;;;;12.77;11.10;;;13.20;99.90;;;;;;5108238;28;20031;-58
2022/04/14 04:45:18;;;;;;;14.15;11.10;;;13.20;99.90;;;;;;5115641;28;20165;-58
2022/04/14 04:48:04;;;;;;;16.50;11.52;;;13.30;99.90;;;;;;5116141;28;20034;-56
2022/04/14 04:50:49;;;;;;;15.35;11.23;;;13.20;99.90;;;;;;5116310;28;20081;-59
2022/04/14 04:53:32;;;;;;;15.70;10.98;;;13.20;99.90;;;;;;5100672;28;20047;-57
2022/04/14 04:56:18;;;;;;;16.55;11.00;;;13.20;99.90;;;;;;5095517;28;20122;-58
2022/04/14 04:59:02;;;;;;;15.88;10.85;;;13.20;99.90;;;;;;5114666;28;20043;-59
2022/04/14 05:01:47;;;;;;;15.32;11.05;;;13.10;99.90;;;;;;5101358;28;20043;-59
2022/04/14 05:04:31;;;;;;;12.38;10.30;;;13.20;99.90;;;;;;5079918;28;20046;-57
2022/04/14 05:07:15;;;;;;;12.50;9.60;;;13.20;99.90;;;;;;5096700;28;20046;-59
2022/04/14 05:09:59;;;;;;;16.00;10.00;;;13.20;99.90;;;;;;5116829;27;20158;-57
2022/04/14 05:12:43;;;;;;;15.80;9.67;;;13.30;99.90;;;;;;5117751;27;20123;-58
2022/04/14 05:15:27;;;;;;;16.57;9.97;;;13.30;99.90;;;;;;5117193;27;20042;-58
2022/04/14 05:18:12;;;;;;;16.97;9.70;;;13.40;99.90;;;;;;5109484;27;20066;-59
2022/04/14 05:20:56;;;;;;;20.85;8.80;;;13.40;99.90;;;;;;5113515;27;20039;-55
2022/04/14 05:23:40;;;;;;;20.70;9.43;;;13.50;99.90;;;;;;5095225;28;20067;-59
2022/04/14 05:26:25;;;;;;;16.38;9.38;;;13.40;99.90;;;;;;5109372;28;20047;-61
2022/04/14 05:29:09;;;;;;;12.35;9.07;;;13.40;99.90;;;;;;5106398;28;20415;-56
2022/04/14 05:31:53;;;;;;;11.35;8.13;;;13.40;99.90;;;;;;5094689;28;20043;-56
2022/04/14 05:34:37;;;;;;;15.10;9.10;;;13.30;99.90;;;;;;5095929;28;20039;-55
2022/04/14 05:37:22;;;;;;;9.88;8.60;;;13.50;99.90;;;;;;5095571;28;20047;-58
2022/04/14 05:40:08;;;;;;;13.55;9.15;;;13.50;99.90;;;;;;5113763;28;20137;-58
2022/04/14 05:42:53;;;;;;;13.05;8.57;;;13.60;99.90;;;;;;5114537;28;20054;-58
2022/04/14 05:45:37;;;;;;;13.63;9.10;;;13.60;99.90;;;;;;5094293;28;20054;-57
2022/04/14 05:48:22;;;;;;;;;;;13.70;99.90;;;;;;5096507;28;20031;-57
2022/04/14 05:51:06;;;;;;;11.75;8.25;;;13.70;99.90;;;;;;5111469;28;19919;-57
2022/04/14 05:53:53;;;;;;;14.40;9.80;;;13.50;99.90;;;;;;5119109;27;20403;-58
2022/04/14 05:56:37;;;;;;;11.75;8.18;;;13.60;99.90;;;;;;5098900;28;20724;-57
2022/04/14 05:59:21;;;;;;;10.13;8.50;;;13.60;99.90;;;;;;5104863;27;20074;-55
2022/04/14 06:02:05;;;;;;;12.82;8.52;;;13.50;99.90;;;;;;5105945;28;20124;-59
2022/04/14 06:04:50;;;;;;;10.07;8.30;;;13.50;99.90;;;;;;5107530;27;20455;-58
2022/04/14 06:07:34;;;;;;;16.20;9.02;;;13.60;99.90;;;;;;5113592;27;20304;-55
2022/04/14 06:10:18;;;;;;;13.60;8.83;;;13.70;99.90;;;;;;5110549;28;20047;-58
2022/04/14 06:13:03;;;;;;;14.80;9.10;;;13.70;99.90;;;;;;5113153;28;20675;-58
2022/04/14 06:15:47;;;;;;;16.83;9.60;;;13.70;99.90;;;;;;5112588;28;20121;-57
2022/04/14 06:18:31;;;;;;;14.43;8.55;;;13.70;99.90;;;;;;5111961;28;20175;-58
2022/04/14 06:21:15;;;;;;;14.13;9.97;;;13.70;99.90;;;;;;5112585;28;20054;-57
2022/04/14 06:23:59;;;;;;;11.00;8.38;;;13.80;99.90;;;;;;5112881;28;20038;-56
2022/04/14 06:26:44;;;;;;;11.00;9.00;;;13.80;99.90;;;;;;5113088;28;20077;-59
2022/04/14 06:29:28;;;;;;;10.27;8.10;;;14.00;99.90;;;;;;5113710;28;20668;-57
2022/04/14 06:32:12;;;;;;;15.83;8.50;;;14.10;99.90;;;;;;5112029;28;20046;-59
2022/04/14 06:34:56;;;;;;;11.07;7.43;;;14.00;99.90;;;;;;5112512;28;20526;-57
2022/04/14 06:37:41;;;;;;;8.98;8.02;;;14.20;99.90;;;;;;5110926;28;20062;-58
2022/04/14 06:40:25;;;;;;;9.25;7.65;;;14.30;99.90;;;;;;5110303;28;20068;-59
2022/04/14 06:43:10;;;;;;;9.93;7.72;;;14.30;99.90;;;;;;5110384;27;20097;-57
2022/04/14 06:45:54;;;;;;;13.13;8.57;;;14.50;99.90;;;;;;5112181;28;20030;-57
2022/04/14 06:48:38;;;;;;;9.27;7.50;;;14.40;99.90;;;;;;5111965;28;20035;-58
2022/04/14 06:51:22;;;;;;;11.18;7.07;;;14.60;99.90;;;;;;5112415;28;20675;-58
2022/04/14 06:54:06;;;;;;;10.33;7.73;;;14.70;99.90;;;;;;5110429;27;20085;-58
2022/04/14 06:56:50;;;;;;;10.13;7.68;;;14.70;99.90;;;;;;5105496;28;20440;-58
2022/04/14 06:59:34;;;;;;;10.27;7.15;;;14.80;99.90;;;;;;5108967;27;20555;-56
2022/04/14 07:02:18;;;;;;;12.60;6.70;;;14.90;99.90;;;;;;5099381;28;20522;-60
2022/04/14 07:05:03;;;;;;;12.30;6.95;;;15.00;99.90;;;;;;5077761;28;20563;-57
2022/04/14 07:07:47;;;;;;;8.32;6.50;;;15.10;99.90;;;;;;5103585;28;20035;-57
2022/04/14 07:10:31;;;;;;;8.50;6.30;;;15.10;99.90;;;;;;5101743;28;20111;-59
2022/04/14 07:13:15;;;;;;;7.50;6.50;;;15.10;99.90;;;;;;5102412;28;20130;-58
2022/04/14 07:16:00;;;;;;;12.48;6.55;;;15.20;99.90;;;;;;5101664;28;20119;-58
2022/04/14 07:18:44;;;;;;;8.80;6.80;;;15.20;99.90;;;;;;5105308;27;20395;-56
2022/04/14 07:21:28;;;;;;;8.30;6.23;;;15.30;99.90;;;;;;5086734;28;20038;-59
2022/04/14 07:24:13;;;;;;;8.40;5.70;;;15.40;99.90;;;;;;5101932;28;20067;-60
2022/04/14 07:26:57;;;;;;;10.52;5.68;;;15.40;99.90;;;;;;5103345;28;20035;-60
2022/04/14 07:29:41;;;;;;;9.17;6.10;;;15.40;99.90;;;;;;5105317;28;20086;-59
2022/04/14 07:32:34;;;;;;;9.90;6.35;;;15.50;99.90;;;;;;5102567;28;20668;-60
2022/04/14 07:35:22;;;;;;;7.45;6.03;;;15.50;99.90;;;;;;5102852;28;20081;-57
2022/04/14 07:38:06;;;;;;;9.07;6.20;;;15.60;99.90;;;;;;5108804;27;20106;-59
2022/04/14 07:40:50;;;;;;;12.40;7.27;;;15.70;99.90;;;;;;5110262;28;20111;-59
2022/04/14 07:43:34;;;;;;;9.23;6.30;;;15.60;99.90;;;;;;5109629;28;20272;-59
2022/04/14 07:46:18;;;;;;;8.17;6.40;;;15.80;99.90;;;;;;5104141;28;20181;-58
2022/04/14 07:49:02;;;;;;;8.32;6.93;;;15.80;99.90;;;;;;5103041;28;20399;-57
2022/04/14 07:51:47;;;;;;;13.02;7.30;;;15.90;99.90;;;;;;5102986;28;20093;-56
2022/04/14 07:54:34;;;;;;;8.32;6.13;;;15.90;99.90;;;;;;5107460;28;20097;-59
2022/04/14 07:57:18;;;;;;;8.00;6.30;;;15.70;99.90;;;;;;5113137;28;20111;-58
2022/04/14 08:00:05;;;;;;;8.65;6.28;;;15.70;99.90;;;;;;5111409;28;20058;-58
2022/04/14 08:02:58;;;;;;;11.32;7.38;;;15.80;99.90;;;;;;5106629;28;20038;-58
2022/04/14 08:05:45;;;;;;;9.57;6.18;;;15.90;99.90;;;;;;5107407;28;20031;-55
2022/04/14 08:08:29;;;;;;;12.48;7.38;;;15.90;99.90;;;;;;5106582;28;20035;-57
2022/04/14 08:11:14;;;;;;;8.98;6.40;;;16.00;99.90;;;;;;5111353;28;20411;-59
2022/04/14 08:13:58;;;;;;;8.93;6.97;;;16.10;99.90;;;;;;5114335;28;20540;-57
2022/04/14 08:16:42;;;;;;;8.27;6.47;;;16.10;99.90;;;;;;5113878;28;20608;-55
2022/04/14 08:19:27;;;;;;;12.68;6.30;;;16.20;99.90;;;;;;5099782;28;20050;-59
2022/04/14 08:22:11;;;;;;;10.55;6.75;;;16.30;99.90;;;;;;5114402;28;20455;-58
2022/04/14 08:24:55;;;;;;;7.93;6.20;;;16.30;99.90;;;;;;5116567;28;20110;-59
2022/04/14 08:27:39;;;;;;;8.10;5.90;;;16.20;99.90;;;;;;5100402;28;20034;-59
2022/04/14 08:30:25;;;;;;;10.53;6.13;;;16.30;99.90;;;;;;5101217;27;20038;-58
2022/04/14 08:33:12;;;;;;;6.93;5.55;;;16.30;99.90;;;;;;5111098;28;20284;-58
2022/04/14 08:35:56;;;;;;;9.90;6.22;;;16.30;99.90;;;;;;5114310;28;20050;-58
2022/04/14 08:38:43;;;;;;;6.27;5.00;;;16.30;99.90;;;;;;5114549;27;20097;-58
2022/04/14 08:41:33;;;;;;;9.05;5.40;;;16.30;99.90;;;;;;5101627;27;20283;-57
2022/04/14 08:44:22;;;;;;;7.57;4.60;;;16.30;99.90;;;;;;5112992;28;20639;-57
2022/04/14 08:47:08;;;;;;;5.45;4.07;;;16.30;99.90;;;;;;5097166;28;20050;-54
2022/04/14 08:49:54;;;;;;;6.35;4.88;;;16.30;99.90;;;;;;5116308;28;20034;-52
2022/04/14 08:52:39;;;;;;;6.55;4.68;;;16.20;99.90;;;;;;5099353;28;20146;-56
2022/04/14 08:55:24;;;;;;;5.35;4.30;;;16.20;99.90;;;;;;5114937;28;20054;-60
2022/04/14 08:58:14;;;;;;;8.32;4.47;;;16.20;99.90;;;;;;5108868;28;20040;-57
2022/04/14 09:00:58;;;;;;;5.47;4.53;;;16.30;99.90;;;;;;5097826;28;20458;-57
2022/04/14 09:03:43;;;;;;;8.00;4.57;;;16.30;99.90;;;;;;5117151;27;20450;-58
2022/04/14 09:06:29;;;;;;;10.40;4.88;;;16.40;99.90;;;;;;5112469;28;20039;-58
2022/04/14 09:09:14;;;;;;;7.68;5.40;;;16.30;99.90;;;;;;5113764;28;20034;-53
2022/04/14 09:11:58;;;;;;;8.30;5.03;;;16.40;99.90;;;;;;5114791;28;20035;-54
2022/04/14 09:14:43;;;;;;;7.97;5.00;;;16.40;99.90;;;;;;5112910;28;20036;-59
2022/04/14 09:17:28;;;;;;;5.72;4.65;;;16.30;99.90;;;;;;5112154;28;20034;-57
2022/04/14 09:20:33;;;;;;;7.70;4.90;;;16.30;99.90;;;;;;5080129;28;20046;-57
2022/04/14 09:23:23;;;;;;;6.45;4.90;;;16.30;99.90;;;;;;5109548;28;20019;-59
2022/04/14 09:26:14;;;;;;;7.13;4.18;;;16.40;99.90;;;;;;5115278;28;20046;-57
2022/04/14 09:29:10;;;;;;;6.95;3.50;;;16.50;99.90;;;;;;5084807;28;20053;-57
2022/04/14 09:31:54;;;;;;;6.07;4.10;;;16.40;99.90;;;;;;5113600;28;20039;-57
2022/04/14 09:34:50;;;;;;;5.55;3.83;;;16.30;99.90;;;;;;5112972;27;20034;-59
2022/04/14 09:37:36;;;;;;;6.60;3.70;;;16.00;99.90;;;;;;5114145;27;20123;-58
2022/04/14 09:40:21;;;;;;;7.28;3.92;;;15.80;99.90;;;;;;5111938;27;20150;-51
2022/04/14 09:43:05;;;;;;;6.35;3.45;;;15.90;99.90;;;;;;5113734;28;20039;-51
2022/04/14 09:45:50;;;;;;;5.38;3.97;;;16.00;99.90;;;;;;5098250;28;20042;-52
2022/04/14 09:48:33;;;;;;;7.00;3.40;;;16.30;99.90;;;;;;5114474;28;20031;-56
2022/04/14 09:51:25;;;;;;;4.13;3.20;;;16.30;99.90;;;;;;5115091;28;20027;-55
2022/04/14 09:54:17;;;;;;;10.20;4.10;;;16.30;99.90;;;;;;5103457;28;20074;-56
2022/04/14 09:57:02;;;;;;;6.68;3.80;;;16.40;99.90;;;;;;5114005;28;20398;-56
2022/04/14 09:59:45;;;;;;;10.20;4.07;;;16.40;99.90;;;;;;5114916;28;20462;-55
2022/04/14 10:02:30;;;;;;;6.05;4.72;;;16.50;99.90;;;;;;5111069;28;20070;-59
2022/04/14 10:05:32;;;;;;;9.00;4.20;;;16.30;99.90;;;;;;5094456;28;20044;-56
2022/04/14 10:08:17;;;;;;;6.15;4.03;;;16.40;99.90;;;;;;5104393;28;20039;-59
2022/04/14 10:11:06;;;;;;;5.88;4.30;;;16.60;99.90;;;;;;5115213;28;20062;-57
2022/04/14 10:13:51;;;;;;;5.38;4.10;;;16.70;99.70;;;;;;5101514;28;20067;-56
2022/04/14 10:16:35;;;;;;;7.47;4.77;;;17.00;99.30;;;;;;5095231;28;20054;-59
2022/04/14 10:19:19;;;;;;;4.70;4.18;;;17.40;98.90;;;;;;5112137;28;20327;-57
2022/04/14 10:22:06;;;;;;;8.48;4.50;;;17.00;99.00;;;;;;5112613;27;20414;-55
2022/04/14 10:24:55;;;;;;;6.18;4.75;;;16.90;99.20;;;;;;5120433;27;20084;-58
2022/04/14 10:27:40;;;;;;;4.70;4.20;;;16.70;99.20;;;;;;5120416;27;20041;-55
2022/04/14 10:30:25;;;;;;;6.63;4.68;;;16.90;99.30;;;;;;5108120;27;20061;-55
2022/04/14 10:33:10;;;;;;;5.13;4.40;;;16.70;99.70;;;;;;5118612;27;20042;-52
2022/04/14 10:35:54;;;;;;;5.00;4.50;;;16.70;99.90;;;;;;5113423;28;20411;-58
2022/04/14 10:38:40;;;;;;;5.22;4.22;;;16.80;99.10;;;;;;5119123;27;20042;-57
2022/04/14 10:41:27;;;;;;;5.32;4.28;;;16.70;99.50;;;;;;5109920;28;20042;-56
2022/04/14 10:44:13;;;;;;;6.88;4.55;;;16.50;99.80;;;;;;5107396;28;20594;-55
2022/04/14 10:46:58;;;;;;;6.13;4.20;;;16.60;99.70;;;;;;5092802;28;20097;-55
2022/04/14 10:49:42;;;;;;;6.10;4.20;;;16.30;99.90;;;;;;5093937;28;20031;-57
2022/04/14 10:52:27;;;;;;;6.85;4.20;;;16.30;99.90;;;;;;5113978;28;20269;-58
2022/04/14 10:55:48;;;;;;;7.63;4.00;;;16.50;99.90;;;;;;5112655;28;20066;-54
2022/04/14 10:58:38;;;;;;;8.95;4.50;;;16.40;99.90;;;;;;5109845;28;20073;-55
2022/04/14 11:01:45;;;;;;;8.38;4.13;;;16.50;99.90;;;;;;5112813;28;20050;-59
2022/04/14 11:04:41;;;;;;;6.03;4.50;;;16.30;99.90;;;;;;5080942;28;20035;-61
2022/04/14 11:07:26;;;;;;;9.18;4.50;;;16.20;99.90;;;;;;5092791;28;20027;-52
2022/04/14 11:10:13;;;;;;;12.32;5.22;;;16.20;99.90;;;;;;5098306;28;20035;-50
2022/04/14 11:12:57;;;;;;;5.93;4.60;;;16.30;99.90;;;;;;5112793;27;20122;-52
2022/04/14 11:15:41;;;;;;;22.60;6.18;;;16.40;99.70;;;;;;5106086;27;20050;-52
2022/04/14 11:18:25;;;;;;;10.65;5.20;;;16.50;99.80;;;;;;5108894;28;20046;-49
2022/04/14 11:21:09;;;;;;;7.40;5.07;;;16.50;99.90;;;;;;5113234;28;20387;-51
2022/04/14 11:23:53;;;;;;;6.53;4.50;;;16.30;99.90;;;;;;5108060;27;20039;-53
2022/04/14 11:26:39;;;;;;;13.25;5.53;;;16.30;99.70;;;;;;5109728;27;20148;-50
2022/04/14 11:29:31;;;;;;;23.25;6.47;;;16.20;99.70;;;;;;5115477;27;20516;-52
2022/04/14 11:32:37;;;;;;;8.85;4.90;;;16.10;99.90;;;;;;5097024;28;20522;-51
2022/04/14 11:35:30;;;;;;;14.75;5.80;;;16.00;99.90;;;;;;5114365;27;20042;-53
2022/04/14 11:38:48;;;;;;;6.93;4.80;;;16.10;99.90;;;;;;5122984;27;20031;-54
2022/04/14 11:41:37;;;;;;;13.00;5.63;;;16.00;99.90;;;;;;5110296;28;20031;-55
2022/04/14 11:44:31;;;;;;;4.97;3.83;;;16.00;99.90;;;;;;5098888;28;20093;-50
2022/04/14 11:47:16;;;;;;;6.80;4.25;;;16.10;99.90;;;;;;5117744;27;20073;-56
2022/04/14 11:50:00;;;;;;;9.82;5.15;;;16.10;99.90;;;;;;5116547;28;20047;-53
2022/04/14 11:52:44;;;;;;;8.02;5.38;;;16.20;99.90;;;;;;5118412;27;20051;-50
2022/04/14 11:55:40;;;;;;;10.90;4.97;;;16.20;99.90;;;;;;5105482;27;20034;-54
2022/04/14 11:58:24;;;;;;;9.30;5.15;;;15.80;99.90;;;;;;5117065;27;20042;-53
2022/04/14 12:01:08;;;;;;;8.23;4.20;;;16.10;99.90;;;;;;5116503;27;20038;-51
2022/04/14 12:03:53;;;;;;;10.70;5.43;;;16.30;99.90;;;;;;5117926;28;20288;-54
2022/04/14 12:06:37;;;;;;;9.88;6.72;;;16.30;99.90;;;;;;5117033;27;20085;-50
2022/04/14 12:09:24;;;;;;;9.20;6.47;;;16.10;99.90;;;;;;5120398;27;20027;-53
2022/04/14 12:12:19;;;;;;;7.47;6.13;;;15.80;99.90;;;;;;5114524;27;20364;-51
2022/04/14 12:15:04;;;;;;;10.57;6.47;;;16.00;99.90;;;;;;5104466;28;20072;-48
2022/04/14 12:17:48;;;;;;;9.10;6.25;;;16.10;99.90;;;;;;5118664;27;20031;-51
2022/04/14 12:20:37;;;;;;;9.25;6.55;;;16.20;99.90;;;;;;5119827;28;20089;-52
2022/04/14 12:23:21;;;;;;;7.65;5.97;;;16.00;99.90;;;;;;5114669;28;20035;-54
2022/04/14 12:26:06;;;;;;;9.82;6.78;;;15.80;99.90;;;;;;5128359;27;20466;-49
2022/04/14 12:28:50;;;;;;;10.80;6.70;;;15.60;99.90;;;;;;5113227;27;20124;-49
2022/04/14 12:31:34;;;;;;;7.73;6.10;;;15.50;99.90;;;;;;5117701;27;20042;-52
2022/04/14 12:34:18;;;;;;;9.73;5.90;;;15.60;99.90;;;;;;5116537;28;20273;-50
2022/04/14 12:37:08;;;;;;;10.27;6.90;;;15.60;99.90;;;;;;5103008;27;20047;-49
2022/04/14 12:40:00;;;;;;;7.72;5.88;;;15.70;99.90;;;;;;5099918;28;20062;-49
2022/04/14 12:42:44;;;;;;;7.70;6.13;;;15.80;99.90;;;;;;5123023;27;20023;-50
2022/04/14 12:45:37;;;;;;;6.43;5.70;;;15.90;99.90;;;;;;5116985;27;20442;-53
2022/04/14 12:48:39;;;;;;;7.68;5.72;;;16.00;99.90;;;;;;5126572;27;20022;-53
2022/04/14 12:51:54;;;;;;;8.80;6.88;;;16.00;99.90;;;;;;5107103;28;20545;-52
2022/04/14 12:54:46;;;;;;;12.95;8.07;;;16.00;99.90;;;;;;5116020;27;20076;-48
2022/04/14 12:57:32;;;;;;;12.18;7.93;;;15.90;99.90;;;;;;5113347;27;20053;-48
2022/04/14 13:00:21;;;;;;;9.43;7.28;;;16.00;99.90;;;;;;5104341;28;20058;-54
2022/04/14 13:03:13;;;;;;;10.32;7.32;;;16.00;99.90;;;;;;5107541;28;20227;-53
2022/04/14 13:06:16;;;;;;;11.65;8.57;;;16.00;99.90;;;;;;5098498;28;20564;-52
2022/04/14 13:09:16;;;;;;;11.43;7.63;;;16.10;99.90;;;;;;5107885;28;20118;-51
2022/04/14 13:12:01;;;;;;;14.40;7.90;;;16.00;99.90;;;;;;5105085;27;20043;-59
2022/04/14 13:14:47;;;;;;;10.38;7.78;;;16.00;99.90;;;;;;5105073;27;20537;-54
2022/04/14 13:17:37;;;;;;;9.05;7.65;;;16.00;99.90;;;;;;5105170;28;20063;-57
2022/04/14 13:20:41;;;;;;;10.25;7.60;;;16.10;99.90;;;;;;5104961;28;20114;-51
2022/04/14 13:23:25;;;;;;;10.47;8.83;;;16.20;99.90;;;;;;5107131;27;20073;-58
2022/04/14 13:26:10;;;;;;;12.52;8.75;;;16.20;99.90;;;;;;5103947;28;20043;-57
2022/04/14 13:28:54;;;;;;;12.45;10.98;;;16.20;99.90;;;;;;5107578;28;20422;-56
2022/04/14 13:31:41;;;;;;;11.77;10.40;;;16.20;99.90;;;;;;5111786;27;20042;-55
2022/04/14 13:34:25;;;;;;;12.88;9.68;;;16.00;99.90;;;;;;5112777;28;20026;-56
2022/04/14 13:37:09;;;;;;;13.50;10.48;;;16.00;99.90;;;;;;5116100;27;20070;-54
2022/04/14 13:39:53;;;;;;;15.37;9.57;;;15.90;99.90;;;;;;5110967;28;20109;-55
2022/04/14 13:42:38;;;;;;;12.60;10.07;;;15.90;99.90;;;;;;5118280;27;20284;-55
2022/04/14 13:45:23;;;;;;;;;;;15.90;99.90;;;;;;5108379;27;20118;-53
2022/04/14 13:48:07;;;;;;;14.20;10.07;;;15.50;99.90;;;;;;5111769;27;19926;-53
2022/04/14 13:50:51;;;;;;;13.90;10.52;;;15.30;99.90;;;;;;5108922;27;20035;-53
2022/04/14 13:53:38;;;;;;;15.87;11.10;;;15.10;99.90;;;;;;5110130;28;20114;-53
2022/04/14 13:56:22;;;;;;;16.15;12.18;;;15.20;99.90;;;;;;5112758;27;20114;-54
2022/04/14 13:59:07;;;;;;;16.30;12.52;;;15.20;99.90;;;;;;5113933;28;20058;-53
2022/04/14 14:01:51;;;;;;;15.02;12.05;;;15.10;99.90;;;;;;5115020;28;20529;-49
2022/04/14 14:04:35;;;;;;;15.38;11.57;;;15.00;99.90;;;;;;5109830;28;20030;-52
2022/04/14 14:07:19;;;;;;;16.70;11.57;;;15.00;99.90;;;;;;5110583;28;20100;-55
2022/04/14 14:10:04;;;;;;;16.13;12.57;;;15.10;99.90;;;;;;5108366;27;20832;-54
2022/04/14 14:12:48;;;;;;;18.20;13.60;;;14.90;99.90;;;;;;5105519;28;20457;-53
2022/04/14 14:15:32;;;;;;;18.55;14.35;;;14.80;99.90;;;;;;5102721;28;20089;-54